createdAt,value
2022-12-18T00:01:35.219Z,12.38
2022-12-18T00:04:05.699Z,11.50
2022-12-18T00:06:33.911Z,12.38
2022-12-18T00:09:01.615Z,11.98
2022-12-18T00:11:31.175Z,11.05
2022-12-18T00:14:00.303Z,12.32
2022-12-18T00:16:29.495Z,12.95
2022-12-18T00:18:58.507Z,12.73
2022-12-18T00:21:25.946Z,12.82
2022-12-18T00:23:53.300Z,11.93
2022-12-18T00:26:31.654Z,12.32
2022-12-18T00:29:15.358Z,12.27
2022-12-18T00:31:44.274Z,12.65
2022-12-18T00:34:13.510Z,11.25
2022-12-18T00:36:42.061Z,11.82
2022-12-18T00:39:09.503Z,11.85
2022-12-18T00:42:11.618Z,12.05
2022-12-18T00:44:38.651Z,12.32
2022-12-18T00:47:05.700Z,12.27
2022-12-18T00:49:32.676Z,11.45
2022-12-18T00:51:59.638Z,11.43
2022-12-18T00:54:26.718Z,11.82
2022-12-18T00:56:53.911Z,11.85
2022-12-18T00:59:21.273Z,11.10
2022-12-18T01:01:48.776Z,11.00
2022-12-18T01:04:16.705Z,11.10
2022-12-18T01:06:46.635Z,11.68
2022-12-18T01:09:13.857Z,12.85
2022-12-18T01:11:41.302Z,12.40
2022-12-18T01:14:08.452Z,11.75
2022-12-18T01:16:38.226Z,12.52
2022-12-18T01:19:05.579Z,12.98
2022-12-18T01:21:33.836Z,12.50
2022-12-18T01:24:05.141Z,11.70
2022-12-18T01:26:32.736Z,12.63
2022-12-18T01:28:59.963Z,12.65
2022-12-18T01:31:32.254Z,12.57
2022-12-18T01:34:02.555Z,13.23
2022-12-18T01:36:32.976Z,12.35
2022-12-18T01:39:01.914Z,12.63
2022-12-18T01:41:53.194Z,12.15
2022-12-18T01:44:51.998Z,11.95
2022-12-18T01:47:27.963Z,12.07
2022-12-18T01:49:56.587Z,12.50
2022-12-18T01:52:26.815Z,11.80
2022-12-18T01:54:54.646Z,11.65
2022-12-18T01:57:22.148Z,12.35
2022-12-18T01:59:53.640Z,12.27
2022-12-18T02:02:22.243Z,13.10
2022-12-18T02:04:49.735Z,12.63
2022-12-18T02:07:24.397Z,12.60
2022-12-18T02:10:23.795Z,12.18
2022-12-18T02:13:15.351Z,12.52
2022-12-18T02:15:59.348Z,12.05
2022-12-18T02:18:32.772Z,12.52
2022-12-18T02:21:21.659Z,12.57
2022-12-18T02:24:00.080Z,12.05
2022-12-18T02:26:40.223Z,12.95
2022-12-18T02:29:11.358Z,13.07
2022-12-18T02:31:52.510Z,12.52
2022-12-18T02:34:23.196Z,12.60
2022-12-18T02:36:52.132Z,14.38
2022-12-18T02:39:22.205Z,14.68
2022-12-18T02:42:00.580Z,18.90
2022-12-18T02:44:27.751Z,17.95
2022-12-18T02:46:56.353Z,18.13
2022-12-18T02:49:44.891Z,18.83
2022-12-18T02:52:38.902Z,23.83
2022-12-18T02:55:25.848Z,33.20
2022-12-18T02:58:10.582Z,22.13
2022-12-18T03:00:47.475Z,29.20
2022-12-18T03:03:37.528Z,41.47
2022-12-18T03:06:13.817Z,23.55
2022-12-18T03:08:49.662Z,21.95
2022-12-18T03:11:38.048Z,15.95
2022-12-18T03:14:08.375Z,21.08
2022-12-18T03:16:36.897Z,15.95
2022-12-18T03:19:11.763Z,18.40
2022-12-18T03:21:46.006Z,19.42
2022-12-18T03:24:16.371Z,17.50
2022-12-18T03:26:46.597Z,21.33
2022-12-18T03:29:39.507Z,17.17
2022-12-18T03:32:11.776Z,18.23
2022-12-18T03:34:41.964Z,17.17
2022-12-18T03:37:11.931Z,16.08
2022-12-18T03:39:39.000Z,19.63
2022-12-18T03:42:22.706Z,19.83
2022-12-18T03:45:36.370Z,17.63
2022-12-18T03:48:14.414Z,20.00
2022-12-18T03:51:11.416Z,18.10
2022-12-18T03:53:53.903Z,16.50
2022-12-18T03:56:28.427Z,15.00
2022-12-18T03:58:57.937Z,14.63
2022-12-18T04:01:32.908Z,15.38
2022-12-18T04:04:02.851Z,14.13
2022-12-18T04:06:33.882Z,13.60
2022-12-18T04:09:02.430Z,13.38
2022-12-18T04:11:31.728Z,14.45
2022-12-18T04:14:02.673Z,15.02
2022-12-18T04:16:32.052Z,14.98
2022-12-18T04:19:02.771Z,14.48
2022-12-18T04:21:35.588Z,14.30
2022-12-18T04:24:02.637Z,15.90
2022-12-18T04:26:30.887Z,14.30
2022-12-18T04:29:18.626Z,14.85
2022-12-18T04:31:45.559Z,15.32
2022-12-18T04:34:12.757Z,14.85
2022-12-18T04:36:46.308Z,14.07
2022-12-18T04:39:14.496Z,14.13
2022-12-18T04:41:42.317Z,14.20
2022-12-18T04:44:10.437Z,15.30
2022-12-18T04:46:37.434Z,16.50
2022-12-18T04:49:04.537Z,14.45
2022-12-18T04:51:31.656Z,13.80
2022-12-18T04:53:58.614Z,14.95
2022-12-18T04:56:25.608Z,15.55
2022-12-18T04:58:52.751Z,15.73
2022-12-18T05:01:20.060Z,15.38
2022-12-18T05:03:47.207Z,15.23
2022-12-18T05:06:14.287Z,15.15
2022-12-18T05:08:41.260Z,14.40
2022-12-18T05:11:11.528Z,15.68
2022-12-18T05:13:39.545Z,15.45
2022-12-18T05:16:07.568Z,16.08
2022-12-18T05:18:35.559Z,15.65
2022-12-18T05:21:02.551Z,16.52
2022-12-18T05:23:31.171Z,14.82
2022-12-18T05:26:01.212Z,14.25
2022-12-18T05:28:30.418Z,15.68
2022-12-18T05:30:59.716Z,16.75
2022-12-18T05:33:29.678Z,14.48
2022-12-18T05:35:59.191Z,15.98
2022-12-18T05:38:28.282Z,14.52
2022-12-18T05:40:55.516Z,15.27
2022-12-18T05:43:23.693Z,14.90
2022-12-18T05:45:50.923Z,15.00
2022-12-18T05:48:18.401Z,15.48
2022-12-18T05:50:47.100Z,15.95
2022-12-18T05:53:16.786Z,15.45
2022-12-18T05:55:44.935Z,14.85
2022-12-18T05:58:12.987Z,15.20
2022-12-18T06:00:42.652Z,15.48
2022-12-18T06:03:10.939Z,14.70
2022-12-18T06:05:40.660Z,14.23
2022-12-18T06:08:08.050Z,16.05
2022-12-18T06:10:35.269Z,13.80
2022-12-18T06:13:02.459Z,14.82
2022-12-18T06:15:29.608Z,14.88
2022-12-18T06:17:56.595Z,17.13
2022-12-18T06:20:24.732Z,15.90
2022-12-18T06:22:54.101Z,15.43
2022-12-18T06:25:21.057Z,15.48
2022-12-18T06:27:49.026Z,15.35
2022-12-18T06:30:16.362Z,17.60
2022-12-18T06:32:43.329Z,15.70
2022-12-18T06:35:10.771Z,16.52
2022-12-18T06:37:37.748Z,15.90
2022-12-18T06:40:06.145Z,16.75
2022-12-18T06:42:33.069Z,15.35
2022-12-18T06:45:03.460Z,16.90
2022-12-18T06:47:30.391Z,15.38
2022-12-18T06:49:57.801Z,15.05
2022-12-18T06:52:24.729Z,16.08
2022-12-18T06:54:52.210Z,16.20
2022-12-18T06:57:19.210Z,15.80
2022-12-18T06:59:46.211Z,15.88
2022-12-18T07:02:14.014Z,17.50
2022-12-18T07:04:41.098Z,17.23
2022-12-18T07:07:08.107Z,18.00
2022-12-18T07:09:35.169Z,18.08
2022-12-18T07:12:02.225Z,18.55
2022-12-18T07:14:29.160Z,17.10
2022-12-18T07:16:56.964Z,17.83
2022-12-18T07:19:24.206Z,16.98
2022-12-18T07:21:52.308Z,19.13
2022-12-18T07:24:19.268Z,17.27
2022-12-18T07:26:50.282Z,17.13
2022-12-18T07:29:17.305Z,17.45
2022-12-18T07:31:44.355Z,17.52
2022-12-18T07:34:16.268Z,17.52
2022-12-18T07:36:43.701Z,17.45
2022-12-18T07:39:12.474Z,16.85
2022-12-18T07:41:45.180Z,15.80
2022-12-18T07:44:14.118Z,14.07
2022-12-18T07:46:41.250Z,14.10
2022-12-18T07:49:08.336Z,15.02
2022-12-18T07:51:35.225Z,14.30
2022-12-18T07:54:02.341Z,15.32
2022-12-18T07:56:31.378Z,15.75
2022-12-18T07:59:00.042Z,15.93
2022-12-18T08:01:27.775Z,14.27
2022-12-18T08:03:54.847Z,16.10
2022-12-18T08:06:22.755Z,15.80
2022-12-18T08:08:55.577Z,16.65
2022-12-18T08:11:23.847Z,16.00
2022-12-18T08:13:50.941Z,14.82
2022-12-18T08:16:18.737Z,15.23
2022-12-18T08:18:46.544Z,16.80
2022-12-18T08:21:16.002Z,16.52
2022-12-18T08:23:43.840Z,16.88
2022-12-18T08:26:14.607Z,16.23
2022-12-18T08:28:42.374Z,15.40
2022-12-18T08:31:10.241Z,15.55
2022-12-18T08:33:38.962Z,15.80
2022-12-18T08:36:07.093Z,16.70
2022-12-18T08:38:34.298Z,16.83
2022-12-18T08:41:03.107Z,17.55
2022-12-18T08:43:48.928Z,17.38
2022-12-18T08:46:16.045Z,17.48
2022-12-18T08:48:42.966Z,17.00
2022-12-18T08:51:12.890Z,18.55
2022-12-18T08:53:40.073Z,19.02
2022-12-18T08:56:07.624Z,17.80
2022-12-18T08:58:34.738Z,18.50
2022-12-18T09:01:08.098Z,17.92
2022-12-18T09:03:35.552Z,17.55
2022-12-18T09:06:03.058Z,14.60
2022-12-18T09:08:30.509Z,43.35
2022-12-18T09:10:57.489Z,13.98
2022-12-18T09:13:25.336Z,13.07
2022-12-18T09:15:54.701Z,11.77
2022-12-18T09:18:23.700Z,13.65
2022-12-18T09:20:53.948Z,15.60
2022-12-18T09:23:22.081Z,13.07
2022-12-18T09:25:49.511Z,13.60
2022-12-18T09:28:18.696Z,12.43
2022-12-18T09:30:48.569Z,12.25
2022-12-18T09:33:16.274Z,12.32
2022-12-18T09:35:44.637Z,11.55
2022-12-18T09:38:14.540Z,13.02
2022-12-18T09:40:45.073Z,11.20
2022-12-18T09:43:29.254Z,11.18
2022-12-18T09:46:04.264Z,11.93
2022-12-18T09:48:46.901Z,10.88
2022-12-18T09:51:19.392Z,12.75
2022-12-18T09:53:53.482Z,13.07
2022-12-18T09:56:23.860Z,12.68
2022-12-18T09:58:58.103Z,11.65
2022-12-18T10:01:30.309Z,12.63
2022-12-18T10:04:02.576Z,11.45
2022-12-18T10:06:45.124Z,11.63
2022-12-18T10:09:25.812Z,13.52
2022-12-18T10:11:55.483Z,15.63
2022-12-18T10:14:43.699Z,12.70
2022-12-18T10:17:29.268Z,13.27
2022-12-18T10:20:02.254Z,13.57
2022-12-18T10:22:54.433Z,13.30
2022-12-18T10:25:49.147Z,12.40
2022-12-18T10:28:18.987Z,12.88
2022-12-18T10:30:46.092Z,18.80
2022-12-18T10:33:17.298Z,14.52
2022-12-18T10:35:45.543Z,13.60
2022-12-18T10:38:15.505Z,12.25
2022-12-18T10:41:03.876Z,12.85
2022-12-18T10:43:33.491Z,11.82
2022-12-18T10:46:03.516Z,12.55
2022-12-18T10:48:32.330Z,13.48
2022-12-18T10:51:10.887Z,13.75
2022-12-18T10:53:41.872Z,13.20
2022-12-18T10:56:08.885Z,13.40
2022-12-18T10:58:38.924Z,13.23
2022-12-18T11:01:18.231Z,12.55
2022-12-18T11:03:47.518Z,11.98
2022-12-18T11:06:17.408Z,12.43
2022-12-18T11:08:57.489Z,12.20
2022-12-18T11:11:25.817Z,13.25
2022-12-18T11:14:31.443Z,11.95
2022-12-18T11:19:55.315Z,12.70
2022-12-18T11:22:37.565Z,12.40
2022-12-18T11:25:33.145Z,11.68
2022-12-18T11:28:03.660Z,12.70
2022-12-18T11:30:36.272Z,13.27
2022-12-18T11:33:11.550Z,12.25
2022-12-18T11:35:44.596Z,11.50
2022-12-18T11:38:23.726Z,12.85
2022-12-18T11:41:00.106Z,11.65
2022-12-18T11:43:53.667Z,12.07
2022-12-18T11:46:33.426Z,11.50
2022-12-18T11:49:09.346Z,11.90
2022-12-18T11:51:46.710Z,13.50
2022-12-18T11:54:15.830Z,13.25
2022-12-18T11:56:57.834Z,13.75
2022-12-18T11:59:50.054Z,12.48
2022-12-18T12:02:42.683Z,13.45
2022-12-18T12:05:34.473Z,12.73
2022-12-18T12:08:07.034Z,12.90
2022-12-18T12:11:00.835Z,12.43
2022-12-18T12:13:27.686Z,12.98
2022-12-18T12:16:28.406Z,13.23
2022-12-18T12:19:17.186Z,13.75
2022-12-18T12:22:09.361Z,12.93
2022-12-18T12:24:49.249Z,14.82
2022-12-18T12:27:22.020Z,13.38
2022-12-18T12:30:01.083Z,13.90
2022-12-18T12:33:01.125Z,13.88
2022-12-18T12:35:38.591Z,13.98
2022-12-18T12:38:31.898Z,13.98
2022-12-18T12:41:05.128Z,15.70
2022-12-18T12:43:34.830Z,15.27
2022-12-18T12:46:10.660Z,14.93
2022-12-18T12:48:52.404Z,14.38
2022-12-18T12:51:26.685Z,14.90
2022-12-18T12:53:57.392Z,15.32
2022-12-18T12:56:31.615Z,15.98
2022-12-18T12:59:25.209Z,16.35
2022-12-18T13:02:19.142Z,16.25
2022-12-18T13:05:06.024Z,14.90
2022-12-18T13:07:45.530Z,18.75
2022-12-18T13:10:25.707Z,16.40
2022-12-18T13:13:17.095Z,15.70
2022-12-18T13:16:09.142Z,15.82
2022-12-18T13:18:36.559Z,16.20
2022-12-18T13:21:19.942Z,17.38
2022-12-18T13:23:47.137Z,16.33
2022-12-18T13:26:17.344Z,15.45
2022-12-18T13:28:47.303Z,16.77
2022-12-18T13:31:15.518Z,16.40
2022-12-18T13:34:24.047Z,15.60
2022-12-18T13:36:35.229Z,16.40
2022-12-18T13:39:18.422Z,14.88
2022-12-18T13:42:09.356Z,16.35
2022-12-18T13:44:43.145Z,14.65
2022-12-18T13:47:31.843Z,13.77
2022-12-18T13:49:59.207Z,14.75
2022-12-18T13:52:29.762Z,16.02
2022-12-18T13:54:58.961Z,17.83
2022-12-18T13:57:35.869Z,18.48
2022-12-18T14:00:29.816Z,12.55
2022-12-18T14:02:59.134Z,14.00
2022-12-18T14:05:35.282Z,14.75
2022-12-18T14:08:07.408Z,15.15
2022-12-18T14:10:47.990Z,15.98
2022-12-18T14:13:29.216Z,17.73
2022-12-18T14:15:58.435Z,28.67
2022-12-18T14:18:53.371Z,12.82
2022-12-18T14:21:30.333Z,12.70
2022-12-18T14:24:09.867Z,11.95
2022-12-18T14:26:36.810Z,10.13
2022-12-18T14:29:24.686Z,10.35
2022-12-18T14:32:16.849Z,11.98
2022-12-18T14:34:54.581Z,12.43
2022-12-18T14:37:26.820Z,11.32
2022-12-18T14:40:10.621Z,11.02
2022-12-18T14:42:38.800Z,10.68
2022-12-18T14:45:42.049Z,11.07
2022-12-18T14:48:18.315Z,10.68
2022-12-18T14:51:16.768Z,11.43
2022-12-18T14:53:50.393Z,10.70
2022-12-18T14:56:27.305Z,12.75
2022-12-18T14:58:58.782Z,14.65
2022-12-18T15:01:33.644Z,11.80
2022-12-18T15:04:02.582Z,11.40
2022-12-18T15:06:38.112Z,12.68
2022-12-18T15:09:21.396Z,16.00
2022-12-18T15:11:48.918Z,14.30
2022-12-18T15:14:41.756Z,14.02
2022-12-18T15:17:25.684Z,13.50
2022-12-18T15:20:01.062Z,16.10
2022-12-18T15:22:35.506Z,14.38
2022-12-18T15:25:05.123Z,13.35
2022-12-18T15:27:36.796Z,15.60
2022-12-18T15:30:09.562Z,16.33
2022-12-18T15:32:38.401Z,27.00
2022-12-18T15:35:15.183Z,21.13
2022-12-18T15:37:43.419Z,24.05
2022-12-18T15:40:17.870Z,24.95
2022-12-18T15:43:03.872Z,20.27
2022-12-18T15:45:30.966Z,20.50
2022-12-18T15:47:57.918Z,22.15
2022-12-18T15:50:25.301Z,14.48
2022-12-18T15:52:54.697Z,16.08
2022-12-18T15:55:43.052Z,16.60
2022-12-18T15:58:12.012Z,15.38
2022-12-18T16:00:41.249Z,16.58
2022-12-18T16:03:10.272Z,13.50
2022-12-18T16:05:37.453Z,14.40
2022-12-18T16:08:04.585Z,20.05
2022-12-18T16:10:31.531Z,19.83
2022-12-18T16:12:58.481Z,22.17
2022-12-18T16:15:25.419Z,23.55
2022-12-18T16:17:53.000Z,22.85
2022-12-18T16:20:23.689Z,17.23
2022-12-18T16:22:50.761Z,15.98
2022-12-18T16:25:27.010Z,17.73
2022-12-18T16:27:56.082Z,16.77
2022-12-18T16:30:33.663Z,16.65
2022-12-18T16:33:05.714Z,17.13
2022-12-18T16:35:34.749Z,19.92
2022-12-18T16:38:01.666Z,19.08
2022-12-18T16:40:28.664Z,18.77
2022-12-18T16:42:55.584Z,19.17
2022-12-18T16:45:22.503Z,18.00
2022-12-18T16:47:50.258Z,19.58
2022-12-18T16:50:17.426Z,18.23
2022-12-18T16:52:44.444Z,17.27
2022-12-18T16:55:11.374Z,18.27
2022-12-18T16:57:38.333Z,20.23
2022-12-18T17:00:06.360Z,21.02
2022-12-18T17:02:33.757Z,21.08
2022-12-18T17:05:01.078Z,21.63
2022-12-18T17:07:28.974Z,20.75
2022-12-18T17:09:56.283Z,19.95
2022-12-18T17:12:23.727Z,19.90
2022-12-18T17:14:50.903Z,18.23
2022-12-18T17:17:21.439Z,18.67
2022-12-18T17:19:50.675Z,19.85
2022-12-18T17:22:17.581Z,19.15
2022-12-18T17:24:44.541Z,26.25
2022-12-18T17:27:11.538Z,21.83
2022-12-18T17:29:43.936Z,20.85
2022-12-18T17:32:14.063Z,20.38
2022-12-18T17:34:41.231Z,19.35
2022-12-18T17:37:08.750Z,17.63
2022-12-18T17:39:35.713Z,17.70
2022-12-18T17:42:02.727Z,17.65
2022-12-18T17:44:29.970Z,19.48
2022-12-18T17:46:56.978Z,19.80
2022-12-18T17:49:23.962Z,19.40
2022-12-18T17:51:51.536Z,18.88
2022-12-18T17:54:18.768Z,19.95
2022-12-18T17:56:46.022Z,19.40
2022-12-18T17:59:14.630Z,21.55
2022-12-18T18:01:44.828Z,21.55
2022-12-18T18:04:13.542Z,20.75
2022-12-18T18:06:41.017Z,21.73
2022-12-18T18:09:16.084Z,21.80
2022-12-18T18:12:03.711Z,20.40
2022-12-18T18:14:31.381Z,19.00
2022-12-18T18:17:01.159Z,18.90
2022-12-18T18:19:32.792Z,20.88
2022-12-18T18:21:59.875Z,20.55
2022-12-18T18:24:27.266Z,20.73
2022-12-18T18:26:54.209Z,20.25
2022-12-18T18:29:24.254Z,20.70
2022-12-18T18:31:53.998Z,20.40
2022-12-18T18:34:24.616Z,19.88
2022-12-18T18:36:51.756Z,20.55
2022-12-18T18:39:19.527Z,20.25
2022-12-18T18:41:48.003Z,20.05
2022-12-18T18:44:16.766Z,19.05
2022-12-18T18:46:44.028Z,19.15
2022-12-18T18:49:11.532Z,20.00
2022-12-18T18:51:40.889Z,20.10
2022-12-18T18:54:08.846Z,20.58
2022-12-18T18:59:31.209Z,19.77
2022-12-18T19:02:04.006Z,21.58
2022-12-18T19:04:33.189Z,20.33
2022-12-18T19:07:00.173Z,20.38
2022-12-18T19:09:28.456Z,19.88
2022-12-18T19:12:14.731Z,21.05
2022-12-18T19:14:42.449Z,20.05
2022-12-18T19:17:10.777Z,20.25
2022-12-18T19:19:37.880Z,21.15
2022-12-18T19:22:06.217Z,20.00
2022-12-18T19:24:33.581Z,20.65
2022-12-18T19:27:00.669Z,20.13
2022-12-18T19:29:28.149Z,20.30
2022-12-18T19:31:55.655Z,20.52
2022-12-18T19:34:22.766Z,19.73
2022-12-18T19:36:52.941Z,21.20
2022-12-18T19:39:23.836Z,21.67
2022-12-18T19:41:52.986Z,21.20
2022-12-18T19:44:21.200Z,19.70
2022-12-18T19:46:51.637Z,19.80
2022-12-18T19:49:21.318Z,18.67
2022-12-18T19:51:49.897Z,19.25
2022-12-18T19:54:17.869Z,21.75
2022-12-18T19:56:46.097Z,20.85
2022-12-18T19:59:13.368Z,22.65
2022-12-18T20:01:40.916Z,22.27
2022-12-18T20:04:08.118Z,22.75
2022-12-18T20:06:50.000Z,20.17
2022-12-18T20:09:18.162Z,19.50
2022-12-18T20:11:47.930Z,20.50
2022-12-18T20:14:18.760Z,18.13
2022-12-18T20:16:52.257Z,20.20
2022-12-18T20:19:19.935Z,21.40
2022-12-18T20:21:47.784Z,19.45
2022-12-18T20:24:14.686Z,19.13
2022-12-18T20:26:41.797Z,18.42
2022-12-18T20:29:08.726Z,18.42
2022-12-18T20:31:35.838Z,17.20
2022-12-18T20:34:04.830Z,17.35
2022-12-18T20:36:34.311Z,19.20
2022-12-18T20:39:05.348Z,18.45
2022-12-18T20:41:38.425Z,18.27
2022-12-18T20:44:22.389Z,18.17
2022-12-18T20:47:07.027Z,17.73
2022-12-18T20:49:35.822Z,18.85
2022-12-18T20:52:06.044Z,17.85
2022-12-18T20:54:33.024Z,17.27
2022-12-18T20:56:59.954Z,16.90
2022-12-18T20:59:26.987Z,17.67
2022-12-18T21:01:54.138Z,17.00
2022-12-18T21:04:21.563Z,18.35
2022-12-18T21:06:53.322Z,17.88
2022-12-18T21:09:23.295Z,16.88
2022-12-18T21:12:09.066Z,16.85
2022-12-18T21:14:39.384Z,17.15
2022-12-18T21:17:06.515Z,16.83
2022-12-18T21:19:33.487Z,16.67
2022-12-18T21:22:00.791Z,16.80
2022-12-18T21:24:29.722Z,15.45
2022-12-18T21:26:59.776Z,15.77
2022-12-18T21:29:27.121Z,17.05
2022-12-18T21:31:54.996Z,16.63
2022-12-18T21:34:27.717Z,17.00
2022-12-18T21:36:57.512Z,16.73
2022-12-18T21:39:26.148Z,15.98
2022-12-18T21:42:11.961Z,16.45
2022-12-18T21:44:42.383Z,17.38
2022-12-18T21:47:21.412Z,16.88
2022-12-18T21:49:53.777Z,16.02
2022-12-18T21:52:31.602Z,16.90
2022-12-18T21:55:06.685Z,16.05
2022-12-18T21:57:36.470Z,16.33
2022-12-18T22:00:04.557Z,15.32
2022-12-18T22:02:39.205Z,14.80
2022-12-18T22:05:06.671Z,15.75
2022-12-18T22:07:34.099Z,15.27
2022-12-18T22:10:01.882Z,14.93
2022-12-18T22:12:43.200Z,26.60
2022-12-18T22:15:11.556Z,22.35
2022-12-18T22:17:40.227Z,18.35
2022-12-18T22:20:09.264Z,15.48
2022-12-18T22:22:36.185Z,14.88
2022-12-18T22:25:03.187Z,34.20
2022-12-18T22:27:30.130Z,19.17
2022-12-18T22:30:05.957Z,18.42
2022-12-18T22:32:35.567Z,28.38
2022-12-18T22:35:08.376Z,18.23
2022-12-18T22:37:40.017Z,18.52
2022-12-18T22:40:07.610Z,22.10
2022-12-18T22:42:35.636Z,19.48
2022-12-18T22:45:02.581Z,15.48
2022-12-18T22:47:30.606Z,14.43
2022-12-18T22:49:58.393Z,16.17
2022-12-18T22:52:25.621Z,17.20
2022-12-18T22:54:54.073Z,16.50
2022-12-18T22:57:24.520Z,13.63
2022-12-18T22:59:51.704Z,15.30
2022-12-18T23:02:19.408Z,19.20
2022-12-18T23:04:47.645Z,16.15
2022-12-18T23:07:15.320Z,15.10
2022-12-18T23:09:42.262Z,17.70
2022-12-18T23:12:15.447Z,15.07
2022-12-18T23:14:42.714Z,15.60
2022-12-18T23:17:09.665Z,15.77
2022-12-18T23:19:36.659Z,13.95
2022-12-18T23:22:07.346Z,14.63
2022-12-18T23:24:38.486Z,14.38
2022-12-18T23:27:06.927Z,13.50
2022-12-18T23:29:39.884Z,15.77
2022-12-18T23:32:07.607Z,15.18
2022-12-18T23:34:34.539Z,15.13
2022-12-18T23:37:03.600Z,14.00
2022-12-18T23:39:30.688Z,15.38
2022-12-18T23:41:58.771Z,22.65
2022-12-18T23:44:26.209Z,15.32
2022-12-18T23:46:53.316Z,16.60
2022-12-18T23:49:20.323Z,15.25
2022-12-18T23:51:47.363Z,16.13
2022-12-18T23:54:14.299Z,24.67
2022-12-18T23:56:41.199Z,15.27
2022-12-18T23:59:08.260Z,13.95
